Time;durP1;ratioP1;P1;durP2;ratioP2;P2;SDS_P1;SDS_P2;PMS_P1;PMS_P2;Temp;Humidity;BMP_temperature;BMP_pressure;BME280_temperature;BME280_humidity;BME280_pressure;Samples;Min_cycle;Max_cycle;Signal;HPM_P1;HPM_P2
2020/12/18 00:02:00;;;;;;;4.40;3.10;;;8.90;99.90;;;;;;5046979;28;20182;-38
2020/12/18 00:04:25;;;;;;;3.57;2.90;;;8.90;99.90;;;;;;5046600;28;20242;-38
2020/12/18 00:06:51;;;;;;;5.27;2.77;;;9.30;99.90;;;;;;5048779;28;20656;-39
2020/12/18 00:09:17;;;;;;;3.90;2.60;;;9.00;99.90;;;;;;5048865;28;20742;-39
2020/12/18 00:11:42;;;;;;;3.83;2.43;;;9.10;99.90;;;;;;5048961;28;20224;-39
2020/12/18 00:14:08;;;;;;;3.73;2.50;;;9.10;99.90;;;;;;5048091;28;20221;-39
2020/12/18 00:16:34;;;;;;;4.63;2.67;;;9.10;99.90;;;;;;5047423;28;20225;-38
2020/12/18 00:19:00;;;;;;;4.10;2.60;;;9.20;99.90;;;;;;5048887;28;20242;-39
2020/12/18 00:21:26;;;;;;;2.80;2.40;;;9.20;99.90;;;;;;5048769;28;20985;-38
2020/12/18 00:23:52;;;;;;;3.47;3.00;;;9.10;99.90;;;;;;5048017;28;20205;-38
2020/12/18 00:26:19;;;;;;;6.20;3.10;;;9.40;99.90;;;;;;5048562;28;20193;-39
2020/12/18 00:28:45;;;;;;;5.03;2.63;;;9.50;99.90;;;;;;5048480;28;20198;-38
2020/12/18 00:31:12;;;;;;;4.03;2.47;;;9.30;99.90;;;;;;5048437;28;20436;-39
2020/12/18 00:33:37;;;;;;;3.23;2.63;;;9.10;99.90;;;;;;5047954;28;20483;-39
2020/12/18 00:36:04;;;;;;;4.83;3.83;;;9.30;99.90;;;;;;5047906;28;20432;-38
2020/12/18 00:38:30;;;;;;;5.10;2.87;;;9.10;99.90;;;;;;5047159;28;20252;-39
2020/12/18 00:40:56;;;;;;;3.63;2.50;;;9.30;99.90;;;;;;5048303;28;20923;-39
2020/12/18 00:43:22;;;;;;;5.93;2.50;;;9.20;99.90;;;;;;5048004;28;20428;-40
2020/12/18 00:45:48;;;;;;;4.67;2.60;;;9.00;99.90;;;;;;5048184;28;20519;-39
2020/12/18 00:48:14;;;;;;;3.80;2.80;;;9.10;99.90;;;;;;5046847;28;20197;-38
2020/12/18 00:50:39;;;;;;;4.83;2.70;;;9.10;99.90;;;;;;5048217;28;20692;-38
2020/12/18 00:53:05;;;;;;;4.97;2.60;;;9.30;99.90;;;;;;5047866;28;20248;-38
2020/12/18 00:55:31;;;;;;;4.30;3.00;;;9.10;99.90;;;;;;5048175;28;20834;-38
2020/12/18 00:57:57;;;;;;;4.20;2.30;;;9.40;99.90;;;;;;5048038;28;20198;-39
2020/12/18 01:00:23;;;;;;;6.20;2.97;;;9.30;99.90;;;;;;5046774;28;20423;-38
2020/12/18 01:02:49;;;;;;;3.63;2.60;;;9.50;99.90;;;;;;5047710;28;20260;-39
2020/12/18 01:05:15;;;;;;;3.53;3.00;;;9.40;99.90;;;;;;5047535;28;20452;-39
2020/12/18 01:07:40;;;;;;;6.30;2.90;;;9.40;99.90;;;;;;5048331;28;20313;-38
2020/12/18 01:10:06;;;;;;;2.60;2.13;;;9.30;99.90;;;;;;5047998;28;20412;-38
2020/12/18 01:12:32;;;;;;;2.77;2.37;;;9.40;99.90;;;;;;5047778;28;20204;-41
2020/12/18 01:14:57;;;;;;;2.90;2.40;;;9.30;99.90;;;;;;5047289;28;20528;-39
2020/12/18 01:17:23;;;;;;;3.40;2.40;;;9.50;99.90;;;;;;5047312;28;20205;-39
2020/12/18 01:19:49;;;;;;;7.37;2.53;;;9.30;99.90;;;;;;5047778;28;20185;-38
2020/12/18 01:22:15;;;;;;;5.60;2.83;;;8.90;99.90;;;;;;5047520;28;20185;-39
2020/12/18 01:24:40;;;;;;;8.20;2.77;;;9.10;99.90;;;;;;5047026;28;20206;-39
2020/12/18 01:27:06;;;;;;;3.73;2.10;;;8.90;99.90;;;;;;5047631;28;20439;-40
2020/12/18 01:29:32;;;;;;;4.37;2.63;;;9.00;99.90;;;;;;5047658;28;20193;-39
2020/12/18 01:31:57;;;;;;;3.60;2.37;;;9.00;99.90;;;;;;5047147;28;20201;-39
2020/12/18 01:34:23;;;;;;;5.00;2.50;;;9.00;99.90;;;;;;5046993;28;20228;-39
2020/12/18 01:36:49;;;;;;;5.03;3.10;;;9.00;99.90;;;;;;5047634;28;20197;-39
2020/12/18 01:39:14;;;;;;;3.00;2.47;;;9.10;99.90;;;;;;5047888;28;20204;-39
2020/12/18 01:41:40;;;;;;;3.67;2.23;;;8.90;99.90;;;;;;5047649;28;20255;-38
2020/12/18 01:44:06;;;;;;;4.03;2.60;;;9.40;99.90;;;;;;5047541;28;20217;-39
2020/12/18 01:46:32;;;;;;;3.03;2.40;;;9.00;99.90;;;;;;5046039;28;20198;-38
2020/12/18 01:48:59;;;;;;;5.30;2.57;;;9.10;99.90;;;;;;5049068;28;20193;-39
2020/12/18 01:51:26;;;;;;;3.40;2.47;;;8.90;99.90;;;;;;5051521;28;20938;-39
2020/12/18 01:53:52;;;;;;;2.77;2.13;;;9.00;99.90;;;;;;5050565;28;20973;-39
2020/12/18 01:56:20;;;;;;;4.40;2.50;;;8.90;99.90;;;;;;5051394;28;20428;-39
2020/12/18 01:58:47;;;;;;;3.90;2.00;;;9.00;99.90;;;;;;5051094;28;20434;-39
2020/12/18 02:01:13;;;;;;;5.07;2.53;;;9.00;99.90;;;;;;5049990;28;20574;-40
2020/12/18 02:03:39;;;;;;;5.13;2.30;;;8.80;99.90;;;;;;5050467;28;20436;-39
2020/12/18 02:06:09;;;;;;;5.40;2.23;;;9.00;99.90;;;;;;5051344;28;20273;-39
2020/12/18 02:08:39;;;;;;;4.60;2.50;;;8.90;99.90;;;;;;5051236;28;20277;-40
2020/12/18 02:11:05;;;;;;;2.23;1.90;;;8.90;99.90;;;;;;5051520;28;20567;-39
2020/12/18 02:13:31;;;;;;;3.00;2.80;;;8.80;99.90;;;;;;5050217;28;21068;-39
2020/12/18 02:15:56;;;;;;;5.90;2.00;;;8.80;99.90;;;;;;5050884;28;20267;-39
2020/12/18 02:18:23;;;;;;;4.23;2.30;;;8.80;99.90;;;;;;5050917;28;20190;-38
2020/12/18 02:20:50;;;;;;;4.87;2.60;;;8.90;99.90;;;;;;5051260;28;20194;-39
2020/12/18 02:23:16;;;;;;;4.00;1.93;;;8.90;99.90;;;;;;5050169;28;20482;-39
2020/12/18 02:25:42;;;;;;;2.63;2.40;;;8.90;99.90;;;;;;5051007;28;20435;-39
2020/12/18 02:28:10;;;;;;;5.70;2.33;;;8.70;99.90;;;;;;5050915;28;20210;-39
2020/12/18 02:30:37;;;;;;;3.27;2.30;;;8.90;99.90;;;;;;5051004;28;20471;-40
2020/12/18 02:33:07;;;;;;;10.73;2.83;;;8.60;99.90;;;;;;5050263;28;21055;-39
2020/12/18 02:35:33;;;;;;;3.30;2.07;;;8.60;99.90;;;;;;5051138;28;20436;-39
2020/12/18 02:37:59;;;;;;;2.57;1.80;;;8.80;99.90;;;;;;5050698;28;20419;-39
2020/12/18 02:40:25;;;;;;;5.53;2.30;;;9.00;99.90;;;;;;5050785;28;20428;-38
2020/12/18 02:42:51;;;;;;;3.20;2.23;;;8.70;99.90;;;;;;5049663;28;20450;-38
2020/12/18 02:45:17;;;;;;;3.13;2.00;;;8.80;99.90;;;;;;5050538;28;20434;-39
2020/12/18 02:47:42;;;;;;;1.63;1.53;;;8.60;99.90;;;;;;5050394;28;20766;-38
2020/12/18 02:50:09;;;;;;;7.83;2.20;;;8.60;99.90;;;;;;5050359;28;20420;-40
2020/12/18 02:52:35;;;;;;;6.70;2.10;;;8.60;99.90;;;;;;5050188;28;20182;-38
2020/12/18 02:55:01;;;;;;;7.57;2.63;;;8.60;99.90;;;;;;5049658;28;20451;-39
2020/12/18 02:57:27;;;;;;;5.30;2.57;;;8.60;99.90;;;;;;5050032;28;20444;-39
2020/12/18 02:59:52;;;;;;;2.80;1.87;;;8.60;99.90;;;;;;5048715;28;20234;-38
2020/12/18 03:02:18;;;;;;;4.57;2.67;;;8.70;99.90;;;;;;5050293;28;20200;-39
2020/12/18 03:04:44;;;;;;;3.93;1.87;;;8.60;99.90;;;;;;5049541;28;20200;-39
2020/12/18 03:07:09;;;;;;;6.00;2.27;;;8.50;99.90;;;;;;5049965;28;20202;-39
2020/12/18 03:09:35;;;;;;;5.57;2.10;;;8.50;99.90;;;;;;5050198;28;20221;-39
2020/12/18 03:12:01;;;;;;;4.47;2.53;;;8.50;99.90;;;;;;5049809;28;20256;-38
2020/12/18 03:14:26;;;;;;;5.23;2.20;;;8.40;99.90;;;;;;5049293;28;20224;-39
2020/12/18 03:16:52;;;;;;;3.70;2.67;;;8.30;99.90;;;;;;5048503;28;20213;-39
2020/12/18 03:19:18;;;;;;;6.10;2.20;;;8.30;99.90;;;;;;5049921;28;20185;-39
2020/12/18 03:21:43;;;;;;;4.17;2.00;;;8.20;99.90;;;;;;5049935;28;20190;-39
2020/12/18 03:24:09;;;;;;;3.10;2.00;;;8.40;99.90;;;;;;5049871;28;20644;-39
2020/12/18 03:26:35;;;;;;;3.37;1.80;;;8.30;99.90;;;;;;5049493;28;20579;-38
2020/12/18 03:29:00;;;;;;;2.70;2.40;;;8.40;99.90;;;;;;5050137;28;20194;-39
2020/12/18 03:31:26;;;;;;;7.67;2.13;;;8.50;99.90;;;;;;5048705;28;20190;-39
2020/12/18 03:33:52;;;;;;;4.43;1.87;;;8.60;99.90;;;;;;5049360;28;20690;-39
2020/12/18 03:36:17;;;;;;;2.60;1.87;;;8.50;99.90;;;;;;5049434;28;20198;-39
2020/12/18 03:38:43;;;;;;;2.90;1.90;;;8.50;99.90;;;;;;5049691;28;20178;-39
2020/12/18 03:41:09;;;;;;;8.33;2.20;;;8.60;99.90;;;;;;5049008;28;20193;-39
2020/12/18 03:43:34;;;;;;;4.40;2.13;;;8.70;99.90;;;;;;5049279;28;20197;-38
2020/12/18 03:46:00;;;;;;;2.50;2.30;;;8.40;99.90;;;;;;5048043;28;20185;-39
2020/12/18 03:48:27;;;;;;;3.70;2.00;;;8.60;99.90;;;;;;5049489;28;20561;-39
2020/12/18 03:50:53;;;;;;;3.73;2.20;;;8.60;99.90;;;;;;5047846;28;20189;-39
2020/12/18 03:53:19;;;;;;;2.63;2.07;;;8.60;99.90;;;;;;5048717;28;20803;-40
2020/12/18 03:55:44;;;;;;;5.10;2.23;;;8.50;99.90;;;;;;5048816;28;20181;-40
2020/12/18 03:58:10;;;;;;;3.23;2.27;;;8.50;99.90;;;;;;5049273;28;20559;-39
2020/12/18 04:00:37;;;;;;;2.90;2.00;;;8.30;99.90;;;;;;5048433;28;20251;-39
2020/12/18 04:03:03;;;;;;;3.33;2.13;;;8.20;99.90;;;;;;5048330;28;20474;-39
2020/12/18 04:05:29;;;;;;;3.10;2.00;;;8.40;99.90;;;;;;5047733;28;20420;-39
2020/12/18 04:07:55;;;;;;;2.60;2.40;;;8.30;99.90;;;;;;5049064;28;21000;-42
2020/12/18 04:10:21;;;;;;;3.30;2.10;;;8.20;99.90;;;;;;5049046;28;20194;-38
2020/12/18 04:12:47;;;;;;;12.10;2.43;;;8.50;99.90;;;;;;5047514;28;20627;-39
2020/12/18 04:15:12;;;;;;;2.33;2.13;;;8.20;99.90;;;;;;5048333;28;20499;-38
2020/12/18 04:17:38;;;;;;;5.20;2.30;;;8.40;99.90;;;;;;5047227;28;20205;-38
2020/12/18 04:20:04;;;;;;;3.47;2.30;;;8.40;99.90;;;;;;5049046;28;20186;-39
2020/12/18 04:22:46;;;;;;;3.90;2.27;;;8.30;99.90;;;;;;5048788;28;20221;-38
2020/12/18 04:25:16;;;;;;;4.67;2.37;;;8.50;99.90;;;;;;5048050;28;20221;-38
2020/12/18 04:27:52;;;;;;;2.93;2.53;;;8.30;99.90;;;;;;5048516;28;20499;-39
2020/12/18 04:30:22;;;;;;;5.77;2.80;;;8.30;99.90;;;;;;5035456;28;20418;-38
2020/12/18 04:32:52;;;;;;;4.80;2.70;;;8.20;99.90;;;;;;5048102;28;20431;-39
2020/12/18 04:38:16;;;;;;;3.63;2.30;;;8.30;99.90;;;;;;5048288;28;20416;-38
2020/12/18 04:40:43;;;;;;;2.60;2.30;;;8.30;99.90;;;;;;5048634;28;20426;-38
2020/12/18 04:43:35;;;;;;;3.40;3.00;;;8.30;99.90;;;;;;5047745;28;20473;-38
2020/12/18 04:46:12;;;;;;;3.87;2.30;;;8.20;99.90;;;;;;5048309;28;20432;-38
2020/12/18 04:48:48;;;;;;;5.77;2.60;;;8.20;99.90;;;;;;5048432;28;20416;-38
2020/12/18 04:51:28;;;;;;;3.30;2.90;;;8.00;99.90;;;;;;5048244;28;20422;-39
2020/12/18 04:53:56;;;;;;;5.07;3.20;;;8.30;99.90;;;;;;5047275;28;20455;-38
2020/12/18 04:56:42;;;;;;;3.33;2.50;;;8.30;99.90;;;;;;5048458;28;20448;-38
2020/12/18 04:59:22;;;;;;;4.60;2.57;;;8.30;99.90;;;;;;5047884;28;20424;-38
2020/12/18 05:01:55;;;;;;;8.90;3.50;;;8.10;99.90;;;;;;5046987;28;20863;-38
2020/12/18 05:04:39;;;;;;;4.67;2.70;;;8.10;99.90;;;;;;5046573;28;20432;-38
2020/12/18 05:07:23;;;;;;;6.67;3.13;;;8.30;99.90;;;;;;5048120;28;20424;-39
2020/12/18 05:09:56;;;;;;;3.83;2.70;;;8.10;99.90;;;;;;5047877;28;20840;-47
2020/12/18 05:12:21;;;;;;;3.80;2.80;;;8.20;99.90;;;;;;5048034;28;20763;-47
2020/12/18 05:14:48;;;;;;;4.83;2.87;;;8.30;99.90;;;;;;5047236;28;20475;-46
2020/12/18 05:17:13;;;;;;;5.03;2.90;;;8.20;99.90;;;;;;5047922;28;20211;-46
2020/12/18 05:19:43;;;;;;;3.50;2.60;;;8.10;99.90;;;;;;5047975;28;20637;-48
2020/12/18 05:22:11;;;;;;;3.00;2.10;;;8.00;99.90;;;;;;5047489;28;20223;-44
2020/12/18 05:24:39;;;;;;;5.03;3.13;;;8.10;99.90;;;;;;5046940;28;20430;-46
2020/12/18 05:27:06;;;;;;;2.50;2.20;;;8.00;99.90;;;;;;5047900;28;20419;-47
2020/12/18 05:29:32;;;;;;;5.20;2.70;;;8.30;99.90;;;;;;5047155;28;20515;-44
2020/12/18 05:32:01;;;;;;;7.40;2.50;;;8.10;99.90;;;;;;5044734;28;20424;-49
2020/12/18 05:34:28;;;;;;;5.00;2.97;;;8.20;99.90;;;;;;5043935;28;20456;-39
2020/12/18 05:36:54;;;;;;;3.77;2.47;;;8.10;99.90;;;;;;5048073;28;20413;-38
2020/12/18 05:39:20;;;;;;;3.77;2.30;;;8.20;99.90;;;;;;5062122;28;20426;-38
2020/12/18 05:42:03;;;;;;;3.83;2.17;;;8.30;99.90;;;;;;5067557;28;20798;-39
2020/12/18 05:44:29;;;;;;;3.10;2.20;;;8.20;99.90;;;;;;5066854;28;20419;-39
2020/12/18 05:47:04;;;;;;;5.13;2.43;;;8.10;99.90;;;;;;5067913;28;20482;-39
2020/12/18 05:49:32;;;;;;;5.30;2.67;;;8.20;99.90;;;;;;5067408;28;20434;-38
2020/12/18 05:51:58;;;;;;;3.80;2.57;;;8.30;99.90;;;;;;5067699;28;20435;-38
2020/12/18 05:54:34;;;;;;;3.60;2.30;;;8.20;99.90;;;;;;5048355;28;21207;-39
2020/12/18 05:57:09;;;;;;;3.53;2.00;;;8.20;99.90;;;;;;5047514;28;20185;-39
2020/12/18 05:59:40;;;;;;;3.60;2.30;;;8.20;99.90;;;;;;5040867;28;20416;-39
2020/12/18 06:02:15;;;;;;;5.27;2.77;;;8.20;99.90;;;;;;5046189;28;21054;-40
2020/12/18 06:04:43;;;;;;;3.37;2.40;;;8.20;99.90;;;;;;5043149;28;20514;-40
2020/12/18 06:07:09;;;;;;;5.37;2.67;;;8.20;99.90;;;;;;5046873;28;20698;-39
2020/12/18 06:09:39;;;;;;;3.87;2.60;;;8.20;99.90;;;;;;5046684;28;20961;-39
2020/12/18 06:12:15;;;;;;;4.40;2.30;;;8.10;99.90;;;;;;5044781;28;20428;-39
2020/12/18 06:14:41;;;;;;;4.63;2.63;;;8.20;99.90;;;;;;5029911;28;21053;-39
2020/12/18 06:17:11;;;;;;;2.83;2.40;;;8.30;99.90;;;;;;5045914;28;20479;-38
2020/12/18 06:19:39;;;;;;;5.13;2.60;;;8.00;99.90;;;;;;5045702;28;20428;-39
2020/12/18 06:22:08;;;;;;;7.60;2.70;;;8.00;99.90;;;;;;5045766;28;20524;-38
2020/12/18 06:24:44;;;;;;;3.70;2.37;;;8.00;99.90;;;;;;5045533;28;20436;-39
2020/12/18 06:27:16;;;;;;;4.63;2.17;;;7.90;99.90;;;;;;5046060;28;20420;-38
2020/12/18 06:29:43;;;;;;;6.77;2.80;;;7.90;99.90;;;;;;5045714;28;20675;-38
2020/12/18 06:32:29;;;;;;;7.20;2.83;;;8.10;99.90;;;;;;5045580;28;20428;-39
2020/12/18 06:35:34;;;;;;;4.03;2.30;;;7.90;99.90;;;;;;5046107;28;20464;-39
2020/12/18 06:38:12;;;;;;;3.73;2.90;;;8.10;99.90;;;;;;5049755;28;20783;-39
2020/12/18 06:40:37;;;;;;;2.80;2.33;;;8.00;99.90;;;;;;5049011;28;20416;-38
2020/12/18 06:43:03;;;;;;;2.87;2.27;;;8.20;99.90;;;;;;5049872;28;20416;-39
2020/12/18 06:45:29;;;;;;;8.10;2.60;;;7.80;99.90;;;;;;5050476;28;20189;-38
2020/12/18 06:47:55;;;;;;;6.13;2.97;;;8.10;99.90;;;;;;5049104;28;20182;-38
2020/12/18 06:50:22;;;;;;;5.37;2.90;;;7.90;99.90;;;;;;5049433;28;20189;-39
2020/12/18 06:52:58;;;;;;;6.17;3.13;;;8.10;99.90;;;;;;5054815;28;20279;-38
2020/12/18 06:55:28;;;;;;;10.10;3.43;;;8.00;99.90;;;;;;5070730;28;20426;-39
2020/12/18 06:58:06;;;;;;;3.30;2.50;;;8.00;99.90;;;;;;5068819;28;20497;-39
2020/12/18 07:00:35;;;;;;;5.80;2.67;;;8.10;99.90;;;;;;5069439;28;20450;-38
2020/12/18 07:03:02;;;;;;;3.50;2.47;;;7.80;99.90;;;;;;5070057;28;20821;-39
2020/12/18 07:05:37;;;;;;;4.60;2.37;;;7.80;99.90;;;;;;5060883;28;20412;-39
2020/12/18 07:08:09;;;;;;;2.97;2.70;;;7.80;99.90;;;;;;5050219;28;21022;-39
2020/12/18 07:10:40;;;;;;;5.47;2.77;;;7.80;99.90;;;;;;5048447;28;20777;-39
2020/12/18 07:13:08;;;;;;;4.57;2.80;;;7.80;99.90;;;;;;5061354;28;20485;-39
2020/12/18 07:15:42;;;;;;;4.00;3.47;;;7.70;99.90;;;;;;5063638;28;20420;-38
2020/12/18 07:18:21;;;;;;;7.10;3.40;;;8.00;99.90;;;;;;5046111;28;20431;-39
2020/12/18 07:20:54;;;;;;;5.77;4.60;;;8.00;99.90;;;;;;5048796;28;20845;-39
2020/12/18 07:23:21;;;;;;;11.97;8.10;;;7.80;99.90;;;;;;5049104;28;20557;-38
2020/12/18 07:25:47;;;;;;;11.03;5.77;;;8.00;99.90;;;;;;5049878;28;20506;-38
2020/12/18 07:28:14;;;;;;;6.07;5.10;;;7.70;99.90;;;;;;5049222;28;20423;-38
2020/12/18 07:30:42;;;;;;;7.40;5.33;;;7.90;99.90;;;;;;5049922;28;20424;-39
2020/12/18 07:33:09;;;;;;;10.53;6.93;;;7.90;99.90;;;;;;5048957;28;20471;-39
2020/12/18 07:35:41;;;;;;;7.00;5.60;;;8.00;99.90;;;;;;5049531;28;20412;-39
2020/12/18 07:38:13;;;;;;;8.80;4.70;;;7.80;99.90;;;;;;5049205;28;20999;-39
2020/12/18 07:40:39;;;;;;;9.53;5.23;;;7.80;99.90;;;;;;5049178;28;20749;-38
2020/12/18 07:43:10;;;;;;;9.33;4.90;;;8.00;99.90;;;;;;5048200;28;20428;-39
2020/12/18 07:45:41;;;;;;;10.47;4.77;;;7.90;99.90;;;;;;5045997;28;20923;-38
2020/12/18 07:48:12;;;;;;;5.23;3.90;;;8.00;99.90;;;;;;5050428;28;20448;-39
2020/12/18 07:50:38;;;;;;;8.83;4.67;;;8.20;99.90;;;;;;5049089;28;20420;-40
2020/12/18 07:53:10;;;;;;;5.70;3.70;;;8.10;99.90;;;;;;5048657;28;20766;-39
2020/12/18 07:55:36;;;;;;;7.23;3.60;;;7.90;99.90;;;;;;5049581;28;20424;-39
2020/12/18 07:58:02;;;;;;;4.97;3.57;;;7.90;99.90;;;;;;5049316;28;20720;-38
2020/12/18 08:00:28;;;;;;;3.67;3.27;;;8.10;99.90;;;;;;5046507;28;20432;-40
2020/12/18 08:02:54;;;;;;;9.33;3.23;;;8.20;99.90;;;;;;5045844;28;20455;-39
2020/12/18 08:05:23;;;;;;;7.23;3.13;;;8.30;99.90;;;;;;5045543;28;20182;-38
2020/12/18 08:07:50;;;;;;;5.20;3.13;;;8.30;99.90;;;;;;5047844;28;20431;-39
2020/12/18 08:10:17;;;;;;;5.13;3.27;;;8.20;99.90;;;;;;5048855;28;20503;-39
2020/12/18 08:12:42;;;;;;;5.20;3.00;;;8.50;99.90;;;;;;5047952;28;20421;-38
2020/12/18 08:15:10;;;;;;;4.00;2.70;;;8.10;99.90;;;;;;5047569;28;20467;-38
2020/12/18 08:17:35;;;;;;;4.57;3.00;;;8.30;99.90;;;;;;5048782;28;20695;-39
2020/12/18 08:20:06;;;;;;;4.83;3.00;;;8.60;99.90;;;;;;5049240;28;20420;-38
2020/12/18 08:22:38;;;;;;;4.47;2.30;;;8.40;99.90;;;;;;5056433;28;20185;-39
2020/12/18 08:25:07;;;;;;;7.20;2.50;;;8.70;99.90;;;;;;5044889;28;20420;-38
2020/12/18 08:27:48;;;;;;;3.00;2.40;;;8.70;99.90;;;;;;5047471;28;20436;-38
2020/12/18 08:30:19;;;;;;;4.30;2.80;;;8.70;99.90;;;;;;5042982;28;20416;-38
2020/12/18 08:32:52;;;;;;;3.63;2.30;;;8.80;99.90;;;;;;5060207;28;20519;-38
2020/12/18 08:35:20;;;;;;;4.43;2.13;;;8.80;99.90;;;;;;5045969;28;20491;-38
2020/12/18 08:37:48;;;;;;;4.87;2.50;;;9.00;99.90;;;;;;5048197;28;20428;-38
2020/12/18 08:40:21;;;;;;;5.40;2.10;;;9.40;99.90;;;;;;5048262;28;20915;-38
2020/12/18 08:43:00;;;;;;;2.30;1.93;;;9.50;99.90;;;;;;5048215;28;20472;-38
2020/12/18 08:45:27;;;;;;;3.80;2.60;;;9.70;99.90;;;;;;5047755;28;20422;-38
2020/12/18 08:47:53;;;;;;;8.20;2.50;;;9.70;99.90;;;;;;5048470;28;20786;-38
2020/12/18 08:50:20;;;;;;;6.20;3.20;;;9.80;99.90;;;;;;5048323;28;20416;-38
2020/12/18 08:52:47;;;;;;;7.30;4.17;;;9.80;99.90;;;;;;5048342;28;20470;-38
2020/12/18 08:55:13;;;;;;;5.30;3.03;;;9.80;99.90;;;;;;5047433;28;20495;-39
2020/12/18 08:57:40;;;;;;;4.90;2.43;;;10.20;99.90;;;;;;5047464;28;20819;-39
2020/12/18 09:00:22;;;;;;;8.43;2.70;;;10.20;99.90;;;;;;5046713;28;20782;-37
2020/12/18 09:02:47;;;;;;;5.37;2.90;;;10.40;99.90;;;;;;5046895;28;20416;-38
2020/12/18 09:05:23;;;;;;;5.93;2.60;;;10.60;99.90;;;;;;5045901;28;20987;-38
2020/12/18 09:07:49;;;;;;;5.23;3.13;;;10.60;99.90;;;;;;5046604;28;20189;-38
2020/12/18 09:10:26;;;;;;;5.93;3.20;;;10.60;99.90;;;;;;5047622;28;20435;-39
2020/12/18 09:12:52;;;;;;;5.30;3.50;;;10.60;99.90;;;;;;5047024;28;20185;-38
2020/12/18 09:15:23;;;;;;;3.80;2.83;;;10.70;99.90;;;;;;5047840;28;20984;-38
2020/12/18 09:18:23;;;;;;;4.63;2.23;;;10.70;99.90;;;;;;5047537;28;20209;-39
2020/12/18 09:20:49;;;;;;;5.10;2.57;;;10.80;99.90;;;;;;5052159;28;20826;-39
2020/12/18 09:23:16;;;;;;;4.00;2.67;;;10.70;99.90;;;;;;5047051;28;20447;-38
2020/12/18 09:25:49;;;;;;;5.73;2.43;;;10.80;99.90;;;;;;5047898;28;20850;-39
2020/12/18 09:28:20;;;;;;;2.77;2.20;;;10.70;99.90;;;;;;5047614;28;20420;-38
2020/12/18 09:30:47;;;;;;;3.03;2.67;;;11.00;99.90;;;;;;5047610;28;20794;-38
2020/12/18 09:33:24;;;;;;;5.20;2.60;;;11.40;99.90;;;;;;5046617;28;21152;-38
2020/12/18 09:35:52;;;;;;;3.13;2.83;;;12.00;99.90;;;;;;5049968;28;20431;-38
2020/12/18 09:38:26;;;;;;;8.33;2.77;;;12.60;99.90;;;;;;5047447;28;20929;-38
2020/12/18 09:40:53;;;;;;;6.47;3.20;;;13.20;99.90;;;;;;5047442;28;20423;-38
2020/12/18 09:43:19;;;;;;;3.37;2.10;;;14.10;99.90;;;;;;5046634;28;20454;-38
2020/12/18 09:45:45;;;;;;;4.20;2.37;;;15.40;99.90;;;;;;5047110;28;20458;-39
2020/12/18 09:48:11;;;;;;;3.50;2.03;;;16.60;99.50;;;;;;5047784;28;20424;-39
2020/12/18 09:50:37;;;;;;;4.23;2.10;;;17.40;97.10;;;;;;5047310;28;20486;-38
2020/12/18 09:53:04;;;;;;;3.53;2.30;;;17.90;95.60;;;;;;5046585;28;20428;-38
2020/12/18 09:55:30;;;;;;;2.80;1.63;;;17.30;95.40;;;;;;5047269;28;21092;-38
2020/12/18 09:57:56;;;;;;;6.50;2.37;;;16.10;97.40;;;;;;5046350;28;20446;-38
2020/12/18 10:00:22;;;;;;;4.03;1.87;;;15.30;98.60;;;;;;5043805;28;20511;-39
2020/12/18 10:02:48;;;;;;;4.07;2.20;;;15.30;99.50;;;;;;5046881;28;20194;-38
2020/12/18 10:05:13;;;;;;;4.13;1.80;;;15.60;98.90;;;;;;5050875;28;20735;-39
2020/12/18 10:07:39;;;;;;;5.67;2.00;;;15.60;98.40;;;;;;5045421;28;20420;-38
2020/12/18 10:10:05;;;;;;;3.57;2.03;;;15.60;98.10;;;;;;5049151;28;20186;-38
2020/12/18 10:12:30;;;;;;;3.63;2.10;;;15.80;98.00;;;;;;5051517;28;20505;-38
2020/12/18 10:14:56;;;;;;;6.30;2.00;;;15.60;98.20;;;;;;5048684;28;20260;-38
2020/12/18 10:17:22;;;;;;;3.00;1.80;;;15.40;98.80;;;;;;5051086;28;20206;-39
2020/12/18 10:19:48;;;;;;;2.20;1.70;;;15.10;99.00;;;;;;5050704;28;20185;-39
2020/12/18 10:22:14;;;;;;;4.30;1.57;;;14.90;99.50;;;;;;5049964;28;20194;-39
2020/12/18 10:24:40;;;;;;;2.80;1.40;;;15.20;99.20;;;;;;5047223;28;20462;-38
2020/12/18 10:27:05;;;;;;;3.27;1.83;;;16.10;97.30;;;;;;5052660;28;20266;-38
2020/12/18 10:29:31;;;;;;;3.73;1.60;;;16.30;97.10;;;;;;5050601;28;20202;-38
2020/12/18 10:31:57;;;;;;;1.73;1.60;;;15.90;97.60;;;;;;5050820;28;20190;-38
2020/12/18 10:34:24;;;;;;;2.33;1.93;;;15.30;98.40;;;;;;5049917;28;20253;-38
2020/12/18 10:36:52;;;;;;;4.27;1.80;;;14.90;99.30;;;;;;5049486;28;20931;-38
2020/12/18 10:39:18;;;;;;;3.93;1.53;;;14.50;99.90;;;;;;5049211;28;20416;-38
2020/12/18 10:41:43;;;;;;;2.87;1.60;;;14.40;99.90;;;;;;5050937;28;20446;-38
2020/12/18 10:44:10;;;;;;;2.97;1.60;;;14.40;99.90;;;;;;5049484;28;20428;-39
2020/12/18 10:46:36;;;;;;;7.57;1.80;;;15.00;99.90;;;;;;5050468;28;20515;-39
2020/12/18 10:49:02;;;;;;;2.40;1.47;;;16.10;98.30;;;;;;5050421;28;20442;-38
2020/12/18 10:51:28;;;;;;;2.70;1.90;;;16.50;97.10;;;;;;5049685;28;21049;-38
2020/12/18 10:53:54;;;;;;;4.40;1.93;;;16.30;97.10;;;;;;5049962;28;20459;-38
2020/12/18 10:56:19;;;;;;;1.73;1.40;;;16.50;96.90;;;;;;5057605;28;20188;-39
2020/12/18 10:58:45;;;;;;;4.37;1.60;;;16.70;96.40;;;;;;5069979;28;20644;-38
2020/12/18 11:01:16;;;;;;;2.90;1.70;;;16.90;95.80;;;;;;5068369;28;20192;-38
2020/12/18 11:03:41;;;;;;;2.33;1.67;;;16.40;96.50;;;;;;5069588;28;20218;-38
2020/12/18 11:06:07;;;;;;;4.23;1.73;;;15.60;97.40;;;;;;5069930;28;20458;-38
2020/12/18 11:08:33;;;;;;;4.50;1.90;;;15.00;98.40;;;;;;5069975;28;20193;-38
2020/12/18 11:10:58;;;;;;;3.50;1.87;;;14.40;99.70;;;;;;5062760;28;20200;-38
2020/12/18 11:13:24;;;;;;;1.60;1.33;;;14.10;99.90;;;;;;5067569;28;20228;-38
2020/12/18 11:15:50;;;;;;;2.47;1.60;;;13.80;99.90;;;;;;5069802;28;20196;-39
2020/12/18 11:18:15;;;;;;;2.20;1.40;;;13.60;99.90;;;;;;5069769;28;20675;-38
2020/12/18 11:20:41;;;;;;;2.57;1.30;;;13.50;99.90;;;;;;5068779;28;20900;-38
2020/12/18 11:23:07;;;;;;;1.93;1.40;;;13.50;99.90;;;;;;5069142;28;20278;-38
2020/12/18 11:25:32;;;;;;;1.90;1.30;;;13.50;99.90;;;;;;5069343;28;20586;-39
2020/12/18 11:27:58;;;;;;;5.27;1.50;;;13.30;99.90;;;;;;5067232;28;20196;-38
2020/12/18 11:30:23;;;;;;;2.40;1.20;;;13.30;99.90;;;;;;5037507;28;20185;-38
2020/12/18 11:32:49;;;;;;;4.47;1.30;;;13.10;99.90;;;;;;5064242;28;20495;-38
2020/12/18 11:35:16;;;;;;;2.73;1.57;;;13.00;99.90;;;;;;5069250;28;20585;-38
2020/12/18 11:37:42;;;;;;;3.83;2.40;;;12.90;99.90;;;;;;5069167;28;20207;-38
2020/12/18 11:40:08;;;;;;;2.33;1.53;;;12.90;99.90;;;;;;5069064;28;20446;-38
2020/12/18 11:42:34;;;;;;;5.03;1.50;;;12.90;99.90;;;;;;5067275;28;20427;-38
2020/12/18 11:45:00;;;;;;;1.37;1.27;;;13.00;99.90;;;;;;5068931;28;20319;-38
2020/12/18 11:47:27;;;;;;;1.90;1.27;;;13.20;99.90;;;;;;5067869;28;20755;-38
2020/12/18 11:49:53;;;;;;;2.67;1.33;;;13.50;99.90;;;;;;5069441;28;20201;-38
2020/12/18 11:52:18;;;;;;;2.93;1.47;;;13.80;99.90;;;;;;5062298;28;20432;-38
2020/12/18 11:54:44;;;;;;;3.30;1.20;;;14.30;99.90;;;;;;5059321;28;20212;-38
2020/12/18 11:57:10;;;;;;;1.43;1.33;;;15.00;99.90;;;;;;5048247;28;20196;-38
2020/12/18 11:59:35;;;;;;;3.77;1.33;;;15.70;99.90;;;;;;5047594;28;20535;-38
2020/12/18 12:02:01;;;;;;;2.77;1.40;;;16.00;98.40;;;;;;5049170;28;20332;-38
2020/12/18 12:04:27;;;;;;;3.13;1.70;;;16.70;97.60;;;;;;5046811;28;20263;-38
2020/12/18 12:06:52;;;;;;;1.93;1.20;;;17.20;97.00;;;;;;5049302;28;20196;-38
2020/12/18 12:09:19;;;;;;;2.40;1.30;;;17.90;95.10;;;;;;5048741;28;20189;-38
2020/12/18 12:11:45;;;;;;;3.23;1.17;;;18.20;94.40;;;;;;5048383;28;20245;-38
2020/12/18 12:14:11;;;;;;;1.23;1.03;;;19.00;93.90;;;;;;5046770;28;20982;-38
2020/12/18 12:16:37;;;;;;;4.13;1.50;;;20.50;91.60;;;;;;5048718;28;20204;-38
2020/12/18 12:19:04;;;;;;;2.07;1.47;;;21.20;87.80;;;;;;5048594;28;20429;-39
2020/12/18 12:21:33;;;;;;;3.00;1.57;;;20.10;88.00;;;;;;5049388;28;20561;-39
2020/12/18 12:23:59;;;;;;;2.50;1.47;;;18.90;90.90;;;;;;5067732;28;20463;-38
2020/12/18 12:26:25;;;;;;;1.33;1.23;;;17.50;92.40;;;;;;5063451;28;20464;-38
2020/12/18 12:28:50;;;;;;;3.10;1.90;;;16.40;94.30;;;;;;5047081;28;20436;-38
2020/12/18 12:31:16;;;;;;;6.73;1.43;;;15.70;96.00;;;;;;5049499;28;20208;-38
2020/12/18 12:33:42;;;;;;;4.73;1.27;;;15.00;96.90;;;;;;5043578;28;20284;-38
2020/12/18 12:36:08;;;;;;;2.07;1.53;;;14.50;98.10;;;;;;5048332;28;20224;-38
2020/12/18 12:38:33;;;;;;;3.20;1.57;;;14.10;99.10;;;;;;5048171;28;20591;-38
2020/12/18 12:40:59;;;;;;;3.87;1.90;;;13.70;99.90;;;;;;5048184;28;20780;-38
2020/12/18 12:43:25;;;;;;;3.50;2.30;;;13.40;99.90;;;;;;5047566;28;20221;-38
2020/12/18 12:45:51;;;;;;;3.03;1.70;;;13.20;99.90;;;;;;5062870;28;20200;-38
2020/12/18 12:48:16;;;;;;;3.00;1.50;;;13.00;99.90;;;;;;5068045;28;20263;-38
2020/12/18 12:50:42;;;;;;;3.30;1.27;;;12.80;99.90;;;;;;5068163;28;20697;-38
2020/12/18 12:53:08;;;;;;;3.03;1.60;;;12.70;99.90;;;;;;5067249;28;20273;-38
2020/12/18 12:55:34;;;;;;;4.83;1.70;;;12.60;99.90;;;;;;5067837;28;20236;-37
2020/12/18 12:57:59;;;;;;;3.30;1.60;;;12.40;99.90;;;;;;5067510;28;20775;-38
2020/12/18 13:00:25;;;;;;;2.30;1.40;;;12.40;99.90;;;;;;5064581;28;20188;-38